createdAt,value
2022-12-22T00:00:02.461Z,1.90
2022-12-22T00:03:33.244Z,1.70
2022-12-22T00:06:54.057Z,1.70
2022-12-22T00:10:14.892Z,2.20
2022-12-22T00:13:36.731Z,1.80
2022-12-22T00:16:57.654Z,1.70
2022-12-22T00:20:18.790Z,2.20
2022-12-22T00:23:39.315Z,2.40
2022-12-22T00:27:00.261Z,2.00
2022-12-22T00:30:24.676Z,1.60
2022-12-22T00:33:45.775Z,1.70
2022-12-22T00:37:06.408Z,1.80
2022-12-22T00:40:36.104Z,1.70
2022-12-22T00:43:56.965Z,1.70
2022-12-22T00:47:18.799Z,1.70
2022-12-22T00:50:45.586Z,1.70
2022-12-22T00:54:05.946Z,2.30
2022-12-22T00:57:28.629Z,1.70
2022-12-22T01:00:49.328Z,1.70
2022-12-22T01:04:11.528Z,1.70
2022-12-22T01:07:33.741Z,1.80
2022-12-22T01:10:54.540Z,1.90
2022-12-22T01:14:15.043Z,1.80
2022-12-22T01:17:35.465Z,1.80
2022-12-22T01:24:18.302Z,1.80
2022-12-22T01:27:38.369Z,1.80
2022-12-22T01:30:58.746Z,2.30
2022-12-22T01:34:19.202Z,2.30
2022-12-22T01:37:41.265Z,1.80
2022-12-22T01:41:01.690Z,1.80
2022-12-22T01:44:29.755Z,1.80
2022-12-22T01:47:52.666Z,1.80
2022-12-22T01:51:13.484Z,1.90
2022-12-22T01:54:35.728Z,1.80
2022-12-22T01:57:56.748Z,2.40
2022-12-22T02:01:17.202Z,1.90
2022-12-22T02:04:40.462Z,2.00
2022-12-22T02:08:15.639Z,2.00
2022-12-22T02:11:47.880Z,2.10
2022-12-22T02:15:18.659Z,2.00
2022-12-22T02:18:46.629Z,2.00
2022-12-22T02:22:17.424Z,2.10
2022-12-22T02:25:45.202Z,2.00
2022-12-22T02:29:08.835Z,2.00
2022-12-22T02:32:29.997Z,2.00
2022-12-22T02:35:57.710Z,1.90
2022-12-22T02:39:29.430Z,2.10
2022-12-22T02:42:53.908Z,2.10
2022-12-22T02:46:23.609Z,2.10
2022-12-22T02:49:50.283Z,2.20
2022-12-22T02:53:11.693Z,2.10
2022-12-22T02:56:32.747Z,2.20
2022-12-22T02:59:53.017Z,2.20
2022-12-22T03:03:14.781Z,2.20
2022-12-22T03:06:35.257Z,2.20
2022-12-22T03:09:55.477Z,2.20
2022-12-22T03:13:17.732Z,2.20
2022-12-22T03:16:38.375Z,2.20
2022-12-22T03:20:00.454Z,2.20
2022-12-22T03:23:23.001Z,2.20
2022-12-22T03:26:27.132Z,2.30
2022-12-22T03:29:30.323Z,2.10
2022-12-22T03:32:33.479Z,2.10
2022-12-22T03:35:38.108Z,2.10
2022-12-22T03:38:41.254Z,2.20
2022-12-22T03:42:01.602Z,2.20
2022-12-22T03:45:22.051Z,2.10
2022-12-22T03:48:25.181Z,2.10
2022-12-22T03:51:29.687Z,2.10
2022-12-22T03:54:32.888Z,2.10
2022-12-22T03:57:36.289Z,2.10
2022-12-22T04:00:48.237Z,2.00
2022-12-22T04:03:51.573Z,2.00
2022-12-22T04:06:56.355Z,2.10
2022-12-22T04:10:17.527Z,2.10
2022-12-22T04:13:20.837Z,2.20
2022-12-22T04:16:32.231Z,2.10
2022-12-22T04:19:35.779Z,2.10
2022-12-22T04:22:43.186Z,2.10
2022-12-22T04:25:47.391Z,2.10
2022-12-22T04:28:51.258Z,2.00
2022-12-22T04:31:55.045Z,2.10
2022-12-22T04:34:58.978Z,2.00
2022-12-22T04:38:03.816Z,2.00
2022-12-22T04:41:07.782Z,2.00
2022-12-22T04:44:11.107Z,2.10
2022-12-22T04:47:21.199Z,2.20
2022-12-22T04:50:26.493Z,2.10
2022-12-22T04:53:39.476Z,2.10
2022-12-22T04:56:42.826Z,2.10
2022-12-22T04:59:45.996Z,2.10
2022-12-22T05:02:49.329Z,2.20
2022-12-22T05:05:53.022Z,2.10
2022-12-22T05:08:57.761Z,2.10
2022-12-22T05:12:01.038Z,2.00
2022-12-22T05:15:04.488Z,2.00
2022-12-22T05:18:07.611Z,2.00
2022-12-22T05:21:13.008Z,2.00
2022-12-22T05:24:17.883Z,2.00
2022-12-22T05:27:21.096Z,2.00
2022-12-22T05:30:24.461Z,2.00
2022-12-22T05:33:27.754Z,2.10
2022-12-22T05:36:30.911Z,2.00
2022-12-22T05:39:35.548Z,2.00
2022-12-22T05:42:39.535Z,2.00
2022-12-22T05:45:42.866Z,2.00
2022-12-22T05:48:46.021Z,2.00
2022-12-22T05:51:49.910Z,2.00
2022-12-22T05:54:54.823Z,2.00
2022-12-22T05:58:01.725Z,2.00
2022-12-22T06:01:05.492Z,2.00
2022-12-22T06:04:08.913Z,2.00
2022-12-22T06:07:12.180Z,2.10
2022-12-22T06:10:17.783Z,2.00
2022-12-22T06:13:21.054Z,2.10
2022-12-22T06:16:24.973Z,2.10
2022-12-22T06:19:28.149Z,2.00
2022-12-22T06:22:31.330Z,2.10
2022-12-22T06:25:35.908Z,2.00
2022-12-22T06:28:39.149Z,2.10
2022-12-22T06:31:42.407Z,2.10
2022-12-22T06:34:45.765Z,2.10
2022-12-22T06:37:49.484Z,2.10
2022-12-22T06:40:54.342Z,2.10
2022-12-22T06:43:56.576Z,2.10
2022-12-22T06:47:00.156Z,2.10
2022-12-22T06:50:03.410Z,2.10
2022-12-22T06:53:08.011Z,2.20
2022-12-22T06:56:12.574Z,2.20
2022-12-22T06:59:15.751Z,2.10
2022-12-22T07:02:19.141Z,2.10
2022-12-22T07:05:23.840Z,2.20
2022-12-22T07:08:27.094Z,2.20
2022-12-22T07:14:35.097Z,2.30
2022-12-22T07:17:38.264Z,2.30
2022-12-22T07:20:41.483Z,2.30
2022-12-22T07:23:44.858Z,2.30
2022-12-22T07:29:52.912Z,2.30
2022-12-22T07:32:56.147Z,2.30
2022-12-22T07:36:07.470Z,2.40
2022-12-22T07:39:11.278Z,2.40
2022-12-22T07:42:38.258Z,2.30
2022-12-22T07:45:41.431Z,2.30
2022-12-22T07:49:02.094Z,2.30
2022-12-22T07:52:05.701Z,2.40
2022-12-22T07:55:10.302Z,2.30
2022-12-22T07:58:14.904Z,2.40
2022-12-22T08:01:18.160Z,2.40
2022-12-22T08:04:22.188Z,2.40
2022-12-22T08:07:25.438Z,2.30
2022-12-22T08:10:28.858Z,2.40
2022-12-22T08:13:33.717Z,2.40
2022-12-22T08:16:36.936Z,2.50
2022-12-22T08:19:40.267Z,2.50
2022-12-22T08:22:43.530Z,2.50
2022-12-22T08:25:49.775Z,2.50
2022-12-22T08:28:57.806Z,2.60
2022-12-22T08:32:02.272Z,2.60
2022-12-22T08:35:06.673Z,2.70
2022-12-22T08:38:11.673Z,2.70
2022-12-22T08:41:16.470Z,2.70
2022-12-22T08:44:23.126Z,2.70
2022-12-22T08:47:26.443Z,2.70
2022-12-22T08:50:29.777Z,2.70
2022-12-22T08:54:04.597Z,2.60
2022-12-22T08:56:56.230Z,2.60
2022-12-22T09:00:00.982Z,2.60
2022-12-22T09:03:04.362Z,2.60
2022-12-22T09:06:08.234Z,2.60
2022-12-22T09:09:13.564Z,2.60
2022-12-22T09:12:16.753Z,2.60
2022-12-22T09:15:21.601Z,2.70
2022-12-22T09:18:24.914Z,2.50
2022-12-22T09:21:28.407Z,2.60
2022-12-22T09:24:31.588Z,2.60
2022-12-22T09:27:35.036Z,2.60
2022-12-22T09:30:39.683Z,2.70
2022-12-22T09:33:44.016Z,2.80
2022-12-22T09:36:47.805Z,2.90
2022-12-22T09:39:51.100Z,2.90
2022-12-22T09:42:54.378Z,3.00
2022-12-22T09:45:59.491Z,3.10
2022-12-22T09:49:02.971Z,3.20
2022-12-22T09:52:07.159Z,3.30
2022-12-22T09:55:16.982Z,3.40
2022-12-22T09:58:26.819Z,3.60
2022-12-22T10:01:43.603Z,3.70
2022-12-22T10:04:57.830Z,3.70
2022-12-22T10:08:03.252Z,3.70
2022-12-22T10:11:06.664Z,3.60
2022-12-22T10:14:12.125Z,3.60
2022-12-22T10:17:25.706Z,3.50
2022-12-22T10:20:29.914Z,3.30
2022-12-22T10:23:42.167Z,3.40
2022-12-22T10:26:45.931Z,3.50
2022-12-22T10:29:49.290Z,3.70
2022-12-22T10:33:09.053Z,3.80
2022-12-22T10:36:13.914Z,3.70
2022-12-22T10:39:22.922Z,3.60
2022-12-22T10:42:26.193Z,3.50
2022-12-22T10:45:29.604Z,3.40
2022-12-22T10:48:36.231Z,3.40
2022-12-22T10:51:40.361Z,3.40
2022-12-22T10:54:45.070Z,3.40
2022-12-22T10:57:48.726Z,3.40
2022-12-22T11:01:03.785Z,3.30
2022-12-22T11:04:22.976Z,3.20
2022-12-22T11:07:26.213Z,3.20
2022-12-22T11:10:37.048Z,3.10
2022-12-22T11:13:53.347Z,3.20
2022-12-22T11:17:02.833Z,3.20
2022-12-22T11:20:36.056Z,3.20
2022-12-22T11:23:45.369Z,3.30
2022-12-22T11:27:01.383Z,3.40
2022-12-22T11:30:09.453Z,3.30
2022-12-22T11:33:28.447Z,3.40
2022-12-22T11:36:42.367Z,3.40
2022-12-22T11:39:57.476Z,3.50
2022-12-22T11:43:19.206Z,3.50
2022-12-22T11:46:32.090Z,3.50
2022-12-22T11:51:02.326Z,3.50
2022-12-22T11:54:06.939Z,3.50
2022-12-22T11:57:25.694Z,3.60
2022-12-22T12:01:04.227Z,3.70
2022-12-22T12:04:21.583Z,3.70
2022-12-22T12:07:30.089Z,3.70
2022-12-22T12:10:38.363Z,3.70
2022-12-22T12:13:51.089Z,3.80
2022-12-22T12:17:01.569Z,3.70
2022-12-22T12:20:31.573Z,3.90
2022-12-22T12:23:58.375Z,4.00
2022-12-22T12:27:12.969Z,4.00
2022-12-22T12:33:49.495Z,4.10
2022-12-22T12:36:59.612Z,4.10
2022-12-22T12:40:18.618Z,4.10
2022-12-22T12:43:24.824Z,4.20
2022-12-22T12:47:04.925Z,4.10
2022-12-22T12:50:33.482Z,3.90
2022-12-22T12:53:36.946Z,3.80
2022-12-22T12:56:56.808Z,3.80
2022-12-22T13:00:02.296Z,3.70
2022-12-22T13:03:07.185Z,3.70
2022-12-22T13:06:32.122Z,3.60
2022-12-22T13:09:51.867Z,3.70
2022-12-22T13:12:58.146Z,3.60
2022-12-22T13:16:27.332Z,3.70
2022-12-22T13:19:31.886Z,3.70
2022-12-22T13:22:35.323Z,3.80
2022-12-22T13:25:46.491Z,3.80
2022-12-22T13:28:53.260Z,3.80
2022-12-22T13:32:01.821Z,3.80
2022-12-22T13:35:31.030Z,3.70
2022-12-22T13:38:38.869Z,3.70
2022-12-22T13:41:44.287Z,3.60
2022-12-22T13:44:48.300Z,3.60
2022-12-22T13:47:53.771Z,3.60
2022-12-22T13:50:59.842Z,3.60
2022-12-22T13:54:10.424Z,3.60
2022-12-22T13:57:18.430Z,3.50
2022-12-22T14:00:23.932Z,3.50
2022-12-22T14:03:58.079Z,3.50
2022-12-22T14:06:51.715Z,3.40
2022-12-22T14:09:57.565Z,3.40
2022-12-22T14:13:03.737Z,3.40
2022-12-22T14:16:07.942Z,3.30
2022-12-22T14:19:15.697Z,3.30
2022-12-22T14:22:22.920Z,3.30
2022-12-22T14:25:31.719Z,3.30
2022-12-22T14:28:40.221Z,3.30
2022-12-22T14:31:55.037Z,3.20
2022-12-22T14:34:59.911Z,3.10
2022-12-22T14:38:21.159Z,3.00
2022-12-22T14:41:43.359Z,2.90
2022-12-22T14:44:48.345Z,2.90
2022-12-22T14:47:52.204Z,2.70
2022-12-22T14:50:57.882Z,2.60
2022-12-22T14:54:04.645Z,2.60
2022-12-22T14:57:16.022Z,2.60
2022-12-22T15:00:31.609Z,2.50
2022-12-22T15:03:42.266Z,2.60
2022-12-22T15:06:49.039Z,2.60
2022-12-22T15:13:21.883Z,2.60
2022-12-22T15:16:25.830Z,2.60
2022-12-22T15:19:31.896Z,2.60
2022-12-22T15:22:36.592Z,2.70
2022-12-22T15:25:39.894Z,2.60
2022-12-22T15:28:43.273Z,2.60
2022-12-22T15:31:46.635Z,2.60
2022-12-22T15:34:49.881Z,2.50
2022-12-22T15:37:54.568Z,2.60
2022-12-22T15:40:58.351Z,2.60
2022-12-22T15:44:02.727Z,2.60
2022-12-22T15:47:07.020Z,2.60
2022-12-22T15:50:16.652Z,2.60
2022-12-22T15:53:22.294Z,2.50
2022-12-22T15:56:27.662Z,2.50
2022-12-22T15:59:31.849Z,2.40
2022-12-22T16:02:35.350Z,2.50
2022-12-22T16:05:39.359Z,2.50
2022-12-22T16:08:47.127Z,2.50
2022-12-22T16:11:50.839Z,2.50
2022-12-22T16:14:57.774Z,2.50
2022-12-22T16:18:03.759Z,2.60
2022-12-22T16:21:13.012Z,2.70
2022-12-22T16:24:27.288Z,2.70
2022-12-22T16:27:31.738Z,2.70
2022-12-22T16:30:35.933Z,2.80
2022-12-22T16:33:39.385Z,2.80
2022-12-22T16:36:43.011Z,2.90
2022-12-22T16:39:48.382Z,2.90
2022-12-22T16:46:25.026Z,2.90
2022-12-22T16:49:28.508Z,2.90
2022-12-22T16:52:39.175Z,2.90
2022-12-22T16:55:44.457Z,2.80
2022-12-22T16:58:48.666Z,2.80
2022-12-22T17:01:56.367Z,2.70
2022-12-22T17:05:02.134Z,2.60
2022-12-22T17:08:08.208Z,2.70
2022-12-22T17:11:21.245Z,2.60
2022-12-22T17:14:30.491Z,2.60
2022-12-22T17:17:40.157Z,2.70
2022-12-22T17:20:46.429Z,2.70
2022-12-22T17:23:52.612Z,2.80
2022-12-22T17:27:01.094Z,2.80
2022-12-22T17:30:06.257Z,2.80
2022-12-22T17:33:15.885Z,2.80
2022-12-22T17:36:27.854Z,2.90
2022-12-22T17:39:32.840Z,3.00
2022-12-22T17:42:37.595Z,3.00
2022-12-22T17:45:41.097Z,3.10
2022-12-22T17:48:44.832Z,3.30
2022-12-22T17:51:48.556Z,3.30
2022-12-22T17:54:53.981Z,3.40
2022-12-22T17:57:59.322Z,3.50
2022-12-22T18:01:03.169Z,3.40
2022-12-22T18:04:09.981Z,3.40
2022-12-22T18:07:15.280Z,3.40
2022-12-22T18:10:25.401Z,3.50
2022-12-22T18:13:30.778Z,3.40
2022-12-22T18:16:39.934Z,3.50
2022-12-22T18:19:44.363Z,3.50
2022-12-22T18:22:48.254Z,3.60
2022-12-22T18:25:53.548Z,3.60
2022-12-22T18:29:01.913Z,3.60
2022-12-22T18:32:08.599Z,3.70
2022-12-22T18:35:12.446Z,3.70
2022-12-22T18:38:27.146Z,3.70
2022-12-22T18:41:34.735Z,3.70
2022-12-22T18:44:39.764Z,3.70
2022-12-22T18:47:43.411Z,3.70
2022-12-22T18:50:46.941Z,3.70
2022-12-22T18:53:53.323Z,3.70
2022-12-22T18:56:58.783Z,3.80
2022-12-22T19:00:09.775Z,3.70
2022-12-22T19:03:20.837Z,3.80
2022-12-22T19:06:25.249Z,3.80
2022-12-22T19:09:28.608Z,3.80
2022-12-22T19:12:31.929Z,3.80
2022-12-22T19:15:40.461Z,3.80
2022-12-22T19:18:44.043Z,3.80
2022-12-22T19:21:48.839Z,3.80
2022-12-22T19:24:57.392Z,3.80
2022-12-22T19:28:07.484Z,3.80
2022-12-22T19:31:21.949Z,3.90
2022-12-22T19:34:29.148Z,3.80
2022-12-22T19:37:35.341Z,3.80
2022-12-22T19:40:40.412Z,3.80
2022-12-22T19:43:47.586Z,3.80
2022-12-22T19:46:56.035Z,3.80
2022-12-22T19:50:03.702Z,3.80
2022-12-22T19:53:08.128Z,3.80
2022-12-22T19:56:24.936Z,3.80
2022-12-22T19:59:38.194Z,3.80
2022-12-22T20:02:47.281Z,3.70
2022-12-22T20:05:56.927Z,3.80
2022-12-22T20:09:04.404Z,3.70
2022-12-22T20:12:20.064Z,3.80
2022-12-22T20:15:28.646Z,3.80
2022-12-22T20:18:33.721Z,3.80
2022-12-22T20:21:37.858Z,3.80
2022-12-22T20:24:43.112Z,3.80
2022-12-22T20:27:47.557Z,3.70
2022-12-22T20:30:53.143Z,3.70
2022-12-22T20:33:58.635Z,3.60
2022-12-22T20:37:02.655Z,3.70
2022-12-22T20:40:23.249Z,3.70
2022-12-22T20:43:28.475Z,3.70
2022-12-22T20:46:32.620Z,3.70
2022-12-22T20:49:37.784Z,3.80
2022-12-22T20:52:41.164Z,3.70
2022-12-22T20:55:45.031Z,3.70
2022-12-22T20:58:48.898Z,3.70
2022-12-22T21:01:53.709Z,3.70
2022-12-22T21:04:59.283Z,3.70
2022-12-22T21:08:02.772Z,3.70
2022-12-22T21:11:07.538Z,3.70
2022-12-22T21:14:11.937Z,3.70
2022-12-22T21:17:18.056Z,3.60
2022-12-22T21:20:25.257Z,3.70
2022-12-22T21:23:28.647Z,3.70
2022-12-22T21:26:34.781Z,3.70
2022-12-22T21:29:38.441Z,3.60
2022-12-22T21:32:41.812Z,3.70
2022-12-22T21:35:46.733Z,3.70
2022-12-22T21:38:51.942Z,3.70
2022-12-22T21:42:01.309Z,3.70
2022-12-22T21:45:05.176Z,3.70
2022-12-22T21:48:09.009Z,3.70
2022-12-22T21:51:14.802Z,3.70
2022-12-22T21:54:18.933Z,3.70
2022-12-22T21:57:22.200Z,3.70
2022-12-22T22:00:27.040Z,3.70
2022-12-22T22:03:32.866Z,3.60
2022-12-22T22:06:39.791Z,3.70
2022-12-22T22:09:43.219Z,3.70
2022-12-22T22:12:47.114Z,3.70
2022-12-22T22:15:50.393Z,3.70
2022-12-22T22:18:53.760Z,3.70
2022-12-22T22:21:58.694Z,3.70
2022-12-22T22:25:02.011Z,3.60
2022-12-22T22:28:05.641Z,3.60
2022-12-22T22:31:11.628Z,3.60
2022-12-22T22:34:15.557Z,3.60
2022-12-22T22:37:20.516Z,3.60
2022-12-22T22:40:24.617Z,3.60
2022-12-22T22:43:27.894Z,3.60
2022-12-22T22:46:31.425Z,3.60
2022-12-22T22:49:35.019Z,3.50
2022-12-22T22:52:39.799Z,3.50
2022-12-22T22:55:43.211Z,3.50
2022-12-22T22:58:46.524Z,3.50
2022-12-22T23:01:49.810Z,3.50
2022-12-22T23:04:53.306Z,3.50
2022-12-22T23:07:58.384Z,3.50
2022-12-22T23:11:02.224Z,3.50
2022-12-22T23:14:05.704Z,3.50
2022-12-22T23:17:09.335Z,3.40
2022-12-22T23:20:12.982Z,3.40
2022-12-22T23:23:17.941Z,3.50
2022-12-22T23:26:21.249Z,3.40
2022-12-22T23:29:24.552Z,3.50
2022-12-22T23:32:27.789Z,3.50
2022-12-22T23:35:31.431Z,3.50
2022-12-22T23:38:36.771Z,3.50
2022-12-22T23:41:40.477Z,3.50
2022-12-22T23:44:43.668Z,3.50
2022-12-22T23:47:47.597Z,3.50
2022-12-22T23:50:51.232Z,3.50
2022-12-22T23:53:56.567Z,3.50
2022-12-22T23:56:59.736Z,3.50
